Time;durP1;ratioP1;P1;durP2;ratioP2;P2;SDS_P1;SDS_P2;PMS_P1;PMS_P2;Temp;Humidity;BMP_temperature;BMP_pressure;BME280_temperature;BME280_humidity;BME280_pressure;Samples;Min_cycle;Max_cycle;Signal;HPM_P1;HPM_P2
2022/09/08 00:00:08;;;;;;;14.93;6.32;;;;;;;;;;4966801;28;20069;-63
2022/09/08 00:02:37;;;;;;;11.68;7.00;;;;;;;;;;4954252;28;20402;-63
2022/09/08 00:05:08;;;;;;;11.32;6.68;;;;;;;;;;4956082;28;20027;-61
2022/09/08 00:07:35;;;;;;;17.73;6.85;;;;;;;;;;4971809;28;20031;-63
2022/09/08 00:10:02;;;;;;;11.18;7.60;;;;;;;;;;4972141;28;20073;-63
2022/09/08 00:12:28;;;;;;;14.82;7.43;;;;;;;;;;4972469;28;20031;-65
2022/09/08 00:14:55;;;;;;;9.98;7.10;;;;;;;;;;4952036;28;20058;-64
2022/09/08 00:17:22;;;;;;;9.35;7.38;;;;;;;;;;4951990;28;20093;-66
2022/09/08 00:19:48;;;;;;;10.77;6.30;;;;;;;;;;4953728;28;20448;-63
2022/09/08 00:22:14;;;;;;;10.88;7.00;;;;;;;;;;4934219;29;20130;-64
2022/09/08 00:24:39;;;;;;;12.63;6.93;;;;;;;;;;4934210;29;20114;-64
2022/09/08 00:27:06;;;;;;;9.77;7.20;;;;;;;;;;4961049;28;20070;-61
2022/09/08 00:29:33;;;;;;;11.70;7.28;;;;;;;;;;4952148;28;20078;-63
2022/09/08 00:31:59;;;;;;;10.45;7.30;;;;;;;;;;4952506;28;20041;-60
2022/09/08 00:34:25;;;;;;;10.43;7.40;;;;;;;;;;4954199;28;20098;-63
2022/09/08 00:36:52;;;;;;;15.27;7.93;;;;;;;;;;4955359;28;20114;-62
2022/09/08 00:39:18;;;;;;;9.43;7.80;;;;;;;;;;4956036;28;20463;-63
2022/09/08 00:41:45;;;;;;;15.07;7.45;;;;;;;;;;4955214;28;20031;-61
2022/09/08 00:44:41;;;;;;;12.45;7.20;;;;;;;;;;4956722;28;20023;-62
2022/09/08 00:47:24;;;;;;;7.90;6.40;;;;;;;;;;4955940;29;20039;-62
2022/09/08 00:50:05;;;;;;;8.73;6.00;;;;;;;;;;4956303;28;20028;-62
2022/09/08 00:52:47;;;;;;;9.65;6.30;;;;;;;;;;4957066;28;20490;-63
2022/09/08 00:55:15;;;;;;;10.02;6.25;;;;;;;;;;4956819;28;20423;-60
2022/09/08 00:57:40;;;;;;;9.65;6.07;;;;;;;;;;4939860;28;20534;-61
2022/09/08 01:00:11;;;;;;;8.40;6.18;;;;;;;;;;4955867;28;20083;-61
2022/09/08 01:02:37;;;;;;;12.13;6.82;;;;;;;;;;4937787;29;20032;-61
2022/09/08 01:05:07;;;;;;;14.10;6.47;;;;;;;;;;4938005;29;20375;-63
2022/09/08 01:13:21;;;;;;;9.70;5.88;;;;;;;;;;4937907;29;20047;-61
2022/09/08 01:15:48;;;;;;;9.65;6.13;;;;;;;;;;4938091;29;20115;-61
2022/09/08 01:18:14;;;;;;;10.35;6.10;;;;;;;;;;4920601;29;20032;-63
2022/09/08 01:21:03;;;;;;;6.88;5.50;;;;;;;;;;4937096;29;20075;-63
2022/09/08 01:23:37;;;;;;;8.52;5.28;;;;;;;;;;4929655;29;20487;-62
2022/09/08 01:26:18;;;;;;;9.13;5.55;;;;;;;;;;4942322;28;20038;-61
2022/09/08 01:28:49;;;;;;;10.20;6.00;;;;;;;;;;4956677;28;20035;-61
2022/09/08 01:31:16;;;;;;;8.70;5.75;;;;;;;;;;4956956;28;20125;-62
2022/09/08 01:33:42;;;;;;;8.18;5.57;;;;;;;;;;4956939;28;20655;-62
2022/09/08 01:36:10;;;;;;;7.20;5.30;;;;;;;;;;4956620;28;20037;-61
2022/09/08 01:38:36;;;;;;;8.73;6.13;;;;;;;;;;4956446;28;20035;-63
2022/09/08 01:41:01;;;;;;;7.57;5.53;;;;;;;;;;4955405;28;20106;-67
2022/09/08 01:43:27;;;;;;;10.80;5.70;;;;;;;;;;4955609;28;20023;-64
2022/09/08 01:45:55;;;;;;;9.52;5.60;;;;;;;;;;4955647;28;20047;-63
2022/09/08 01:48:22;;;;;;;6.78;5.20;;;;;;;;;;4956229;28;20027;-63
2022/09/08 01:50:48;;;;;;;10.98;5.93;;;;;;;;;;4956179;28;20042;-62
2022/09/08 01:53:14;;;;;;;8.15;6.13;;;;;;;;;;4956076;28;20035;-62
2022/09/08 01:55:40;;;;;;;15.35;6.75;;;;;;;;;;4944826;28;20050;-63
2022/09/08 01:58:06;;;;;;;12.85;7.28;;;;;;;;;;4936689;29;20024;-62
2022/09/08 02:00:32;;;;;;;9.35;6.72;;;;;;;;;;4947600;28;20495;-63
2022/09/08 02:02:58;;;;;;;8.00;6.97;;;;;;;;;;4965312;28;20073;-62
2022/09/08 02:05:24;;;;;;;11.38;7.55;;;;;;;;;;4975187;28;20062;-64
2022/09/08 02:07:49;;;;;;;13.45;7.32;;;;;;;;;;4973839;28;20061;-62
2022/09/08 02:10:15;;;;;;;11.75;8.10;;;;;;;;;;4974469;28;20098;-62
2022/09/08 02:12:41;;;;;;;12.65;7.63;;;;;;;;;;4974928;28;20386;-63
2022/09/08 02:15:08;;;;;;;11.00;8.63;;;;;;;;;;4974656;28;20057;-65
2022/09/08 02:17:33;;;;;;;14.00;8.65;;;;;;;;;;4958411;28;20430;-67
2022/09/08 02:19:59;;;;;;;9.95;8.05;;;;;;;;;;4955490;28;20106;-62
2022/09/08 02:22:26;;;;;;;10.95;7.60;;;;;;;;;;4955477;28;20386;-62
2022/09/08 02:24:52;;;;;;;11.30;7.38;;;;;;;;;;4955588;28;20079;-61
2022/09/08 02:27:18;;;;;;;10.50;7.43;;;;;;;;;;4955518;28;20042;-63
2022/09/08 02:29:45;;;;;;;10.85;6.88;;;;;;;;;;4955323;28;20036;-64
2022/09/08 02:32:10;;;;;;;9.45;7.07;;;;;;;;;;4955711;28;20166;-63
2022/09/08 02:34:36;;;;;;;13.15;7.40;;;;;;;;;;4955515;28;20109;-61
2022/09/08 02:37:02;;;;;;;13.35;7.50;;;;;;;;;;4955474;28;20464;-62
2022/09/08 02:39:29;;;;;;;10.98;7.20;;;;;;;;;;4954704;28;20494;-62
2022/09/08 02:41:54;;;;;;;10.45;7.30;;;;;;;;;;4954868;28;20093;-64
2022/09/08 02:44:20;;;;;;;9.95;6.95;;;;;;;;;;4954623;29;20038;-64
2022/09/08 02:46:46;;;;;;;10.95;6.70;;;;;;;;;;4955133;28;20031;-62
2022/09/08 02:49:13;;;;;;;10.38;7.15;;;;;;;;;;4954431;28;20074;-62
2022/09/08 02:51:39;;;;;;;8.13;6.80;;;;;;;;;;4954861;28;20074;-61
2022/09/08 02:54:05;;;;;;;9.85;7.00;;;;;;;;;;4955328;28;20482;-62
2022/09/08 02:56:31;;;;;;;12.35;7.75;;;;;;;;;;4954205;28;20061;-62
2022/09/08 02:58:57;;;;;;;9.05;7.57;;;;;;;;;;4954885;29;20086;-63
2022/09/08 03:01:24;;;;;;;9.68;7.50;;;;;;;;;;4954779;28;20023;-62
2022/09/08 03:03:50;;;;;;;13.48;7.43;;;;;;;;;;4954596;28;20153;-61
2022/09/08 03:06:17;;;;;;;8.82;6.65;;;;;;;;;;4954045;28;20024;-61
2022/09/08 03:08:43;;;;;;;15.90;6.88;;;;;;;;;;4937119;29;20035;-62
2022/09/08 03:11:09;;;;;;;11.32;7.00;;;;;;;;;;4953319;28;20042;-62
2022/09/08 03:13:35;;;;;;;13.13;7.80;;;;;;;;;;4954103;28;20047;-65
2022/09/08 03:16:02;;;;;;;10.43;7.30;;;;;;;;;;4954083;28;20495;-63
2022/09/08 03:18:29;;;;;;;11.00;7.80;;;;;;;;;;4954721;29;20102;-62
2022/09/08 03:21:14;;;;;;;10.70;7.55;;;;;;;;;;4953954;28;20111;-64
2022/09/08 03:23:40;;;;;;;22.23;8.88;;;;;;;;;;4972545;28;20038;-66
2022/09/08 03:26:15;;;;;;;17.63;8.02;;;;;;;;;;4972647;28;20023;-65
2022/09/08 03:28:42;;;;;;;13.23;7.70;;;;;;;;;;4974223;28;20447;-63
2022/09/08 03:31:12;;;;;;;11.88;8.55;;;;;;;;;;4974369;28;20031;-66
2022/09/08 03:33:38;;;;;;;11.48;8.15;;;;;;;;;;4974486;28;20031;-64
2022/09/08 03:36:05;;;;;;;13.35;8.23;;;;;;;;;;4974407;28;20033;-61
2022/09/08 03:38:32;;;;;;;12.73;7.90;;;;;;;;;;4974357;28;20039;-61
2022/09/08 03:40:58;;;;;;;10.25;7.10;;;;;;;;;;4956723;28;20026;-61
2022/09/08 03:43:24;;;;;;;10.48;7.05;;;;;;;;;;4974507;28;20452;-61
2022/09/08 03:45:50;;;;;;;9.63;7.22;;;;;;;;;;4973160;28;20027;-62
2022/09/08 03:48:16;;;;;;;11.55;7.47;;;;;;;;;;4974337;28;20037;-63
2022/09/08 03:50:43;;;;;;;9.23;7.00;;;;;;;;;;4973997;28;20406;-61
2022/09/08 03:53:10;;;;;;;12.32;7.15;;;;;;;;;;4974568;28;20050;-62
2022/09/08 03:55:40;;;;;;;14.63;7.72;;;;;;;;;;4973729;28;20018;-61
2022/09/08 03:58:06;;;;;;;16.80;8.85;;;;;;;;;;4974168;28;20041;-63
2022/09/08 04:00:31;;;;;;;12.38;7.68;;;;;;;;;;4974088;28;20386;-64
2022/09/08 04:02:57;;;;;;;13.80;8.93;;;;;;;;;;4973957;28;20043;-63
2022/09/08 04:05:25;;;;;;;9.70;7.55;;;;;;;;;;4956452;28;20065;-61
2022/09/08 04:07:51;;;;;;;13.32;8.35;;;;;;;;;;4973648;28;20035;-67
2022/09/08 04:10:17;;;;;;;14.70;8.30;;;;;;;;;;4973186;28;20434;-65
2022/09/08 04:12:43;;;;;;;16.52;8.95;;;;;;;;;;4973962;28;20035;-65
2022/09/08 04:15:09;;;;;;;12.25;8.90;;;;;;;;;;4972687;28;20042;-63
2022/09/08 04:17:35;;;;;;;12.10;7.93;;;;;;;;;;4952777;28;20046;-66
2022/09/08 04:20:02;;;;;;;11.25;8.18;;;;;;;;;;4954226;28;20039;-67
2022/09/08 04:22:28;;;;;;;10.40;8.23;;;;;;;;;;4954518;28;20066;-66
2022/09/08 04:24:54;;;;;;;9.73;7.43;;;;;;;;;;4954397;28;20063;-63
2022/09/08 04:27:21;;;;;;;9.02;7.53;;;;;;;;;;4954130;28;20031;-64
2022/09/08 04:29:47;;;;;;;13.57;8.48;;;;;;;;;;4954421;28;20419;-61
2022/09/08 04:32:13;;;;;;;8.98;7.75;;;;;;;;;;4954494;28;20035;-64
2022/09/08 04:34:39;;;;;;;10.98;6.75;;;;;;;;;;4954504;28;20034;-66
2022/09/08 04:37:06;;;;;;;12.32;6.95;;;;;;;;;;4954134;28;20050;-66
2022/09/08 04:39:32;;;;;;;9.48;7.72;;;;;;;;;;4954292;28;20471;-64
2022/09/08 04:41:58;;;;;;;13.35;8.07;;;;;;;;;;4954174;28;20027;-64
2022/09/08 04:44:24;;;;;;;12.73;7.10;;;;;;;;;;4937245;29;20077;-66
2022/09/08 04:46:49;;;;;;;9.07;7.13;;;;;;;;;;4954342;28;20035;-62
2022/09/08 04:49:15;;;;;;;14.35;8.02;;;;;;;;;;4954244;28;20019;-61
2022/09/08 04:51:42;;;;;;;9.95;7.07;;;;;;;;;;4954313;28;20027;-62
2022/09/08 04:54:09;;;;;;;14.88;7.68;;;;;;;;;;4954373;28;20030;-63
2022/09/08 04:56:35;;;;;;;9.70;6.95;;;;;;;;;;4954131;28;20034;-62
2022/09/08 04:59:02;;;;;;;10.32;6.45;;;;;;;;;;4954332;28;20052;-65
2022/09/08 05:01:34;;;;;;;14.57;7.10;;;;;;;;;;4954065;28;20031;-64
2022/09/08 05:04:01;;;;;;;9.98;6.75;;;;;;;;;;4953836;28;20039;-62
2022/09/08 05:06:29;;;;;;;11.45;7.35;;;;;;;;;;4936282;29;20031;-63
2022/09/08 05:08:57;;;;;;;12.55;6.47;;;;;;;;;;4954204;28;20035;-63
2022/09/08 05:11:24;;;;;;;8.00;6.75;;;;;;;;;;4937007;29;20061;-63
2022/09/08 05:13:50;;;;;;;7.57;5.90;;;;;;;;;;4936499;29;20039;-63
2022/09/08 05:16:18;;;;;;;8.32;6.38;;;;;;;;;;4953695;28;20110;-63
2022/09/08 05:18:49;;;;;;;9.93;6.28;;;;;;;;;;4953630;28;20050;-66
2022/09/08 05:21:16;;;;;;;11.90;6.10;;;;;;;;;;4956038;28;20058;-62
2022/09/08 05:23:42;;;;;;;14.35;6.65;;;;;;;;;;4957633;28;20023;-64
2022/09/08 05:26:11;;;;;;;9.85;6.55;;;;;;;;;;4957499;28;20027;-63
2022/09/08 05:28:39;;;;;;;13.32;7.20;;;;;;;;;;4942395;28;20023;-64
2022/09/08 05:31:07;;;;;;;13.55;7.10;;;;;;;;;;4956700;28;20423;-64
2022/09/08 05:33:34;;;;;;;10.77;6.63;;;;;;;;;;4940073;28;20495;-62
2022/09/08 05:36:01;;;;;;;11.60;6.68;;;;;;;;;;4957292;28;20039;-62
2022/09/08 05:38:27;;;;;;;10.40;6.75;;;;;;;;;;4957152;28;20470;-62
2022/09/08 05:40:53;;;;;;;13.40;7.22;;;;;;;;;;4956780;28;20066;-61
2022/09/08 05:43:19;;;;;;;12.02;6.22;;;;;;;;;;4956946;28;20031;-62
2022/09/08 05:45:47;;;;;;;12.60;6.75;;;;;;;;;;4956670;28;20390;-62
2022/09/08 05:48:14;;;;;;;12.15;6.70;;;;;;;;;;4939398;28;20023;-62
2022/09/08 05:50:44;;;;;;;9.90;6.43;;;;;;;;;;4956474;28;20039;-62
2022/09/08 05:53:12;;;;;;;10.45;6.15;;;;;;;;;;4956670;28;20078;-64
2022/09/08 05:55:40;;;;;;;11.90;6.75;;;;;;;;;;4956783;28;20508;-63
2022/09/08 05:58:07;;;;;;;13.45;7.68;;;;;;;;;;4957851;28;20344;-68
2022/09/08 06:00:33;;;;;;;13.45;6.90;;;;;;;;;;4955801;28;20031;-69
2022/09/08 06:02:59;;;;;;;15.88;7.18;;;;;;;;;;4955934;28;20041;-68
2022/09/08 06:05:25;;;;;;;8.80;6.47;;;;;;;;;;4956249;28;20023;-67
2022/09/08 06:07:51;;;;;;;10.23;6.60;;;;;;;;;;4955612;28;20043;-65
2022/09/08 06:10:17;;;;;;;10.55;6.97;;;;;;;;;;4954779;28;20038;-67
2022/09/08 06:12:44;;;;;;;12.55;7.00;;;;;;;;;;4955323;28;20157;-66
2022/09/08 06:15:11;;;;;;;15.32;7.47;;;;;;;;;;4954779;28;20039;-66
2022/09/08 06:17:38;;;;;;;9.55;7.05;;;;;;;;;;4955786;28;20027;-67
2022/09/08 06:20:05;;;;;;;12.45;7.75;;;;;;;;;;4952894;28;20041;-71
2022/09/08 06:22:32;;;;;;;10.60;7.85;;;;;;;;;;4955333;28;20541;-67
2022/09/08 06:24:59;;;;;;;13.35;7.35;;;;;;;;;;4955533;28;20118;-67
2022/09/08 06:27:40;;;;;;;10.07;7.47;;;;;;;;;;4954959;28;20089;-66
2022/09/08 06:30:16;;;;;;;13.95;7.53;;;;;;;;;;4946609;28;20050;-65
2022/09/08 06:32:47;;;;;;;13.35;7.15;;;;;;;;;;4928811;29;20066;-67
2022/09/08 06:35:23;;;;;;;9.05;6.57;;;;;;;;;;4946044;28;20095;-66
2022/09/08 06:37:54;;;;;;;12.02;7.28;;;;;;;;;;4940403;28;20031;-65
2022/09/08 06:40:25;;;;;;;11.38;7.72;;;;;;;;;;4960878;28;20078;-66
2022/09/08 06:43:24;;;;;;;11.38;7.45;;;;;;;;;;4974129;28;20082;-66
2022/09/08 06:45:52;;;;;;;11.23;7.53;;;;;;;;;;4923712;28;20054;-66
2022/09/08 06:48:34;;;;;;;9.82;7.35;;;;;;;;;;4973985;28;20367;-66
2022/09/08 06:51:17;;;;;;;10.00;6.15;;;;;;;;;;4955726;28;20049;-69
2022/09/08 06:54:15;;;;;;;14.35;7.38;;;;;;;;;;4971976;28;20035;-68
2022/09/08 06:57:08;;;;;;;17.02;6.65;;;;;;;;;;4912189;29;20452;-67
2022/09/08 06:59:40;;;;;;;10.10;6.78;;;;;;;;;;4934442;29;20032;-66
2022/09/08 07:02:18;;;;;;;10.60;6.60;;;;;;;;;;4934681;29;20130;-66
2022/09/08 07:05:19;;;;;;;9.45;6.60;;;;;;;;;;4951108;28;20495;-65
2022/09/08 07:07:58;;;;;;;9.45;5.95;;;;;;;;;;4941879;28;20125;-66
2022/09/08 07:10:50;;;;;;;11.75;5.50;;;;;;;;;;4952043;28;20050;-65
2022/09/08 07:13:40;;;;;;;10.95;6.32;;;;;;;;;;4952064;29;20038;-68
2022/09/08 07:16:31;;;;;;;9.10;5.20;;;;;;;;;;4949033;28;20027;-66
2022/09/08 07:19:08;;;;;;;6.63;4.95;;;;;;;;;;4951711;28;20114;-67
2022/09/08 07:21:43;;;;;;;7.93;5.30;;;;;;;;;;4947681;28;20054;-67
2022/09/08 07:24:13;;;;;;;7.90;4.90;;;;;;;;;;4953526;28;20114;-67
2022/09/08 07:26:56;;;;;;;9.60;4.97;;;;;;;;;;4968533;28;20022;-68
2022/09/08 07:29:29;;;;;;;6.30;4.82;;;;;;;;;;4972699;28;20853;-65
2022/09/08 07:31:57;;;;;;;8.25;5.03;;;;;;;;;;4971868;28;20504;-64
2022/09/08 07:34:28;;;;;;;7.13;5.10;;;;;;;;;;4973084;28;20126;-69
2022/09/08 07:37:17;;;;;;;11.40;5.63;;;;;;;;;;4972919;28;20035;-66
2022/09/08 07:40:26;;;;;;;7.25;4.70;;;;;;;;;;4973396;28;20485;-65
2022/09/08 07:42:56;;;;;;;8.57;4.80;;;;;;;;;;4966228;28;20071;-66
2022/09/08 07:45:35;;;;;;;11.23;4.55;;;;;;;;;;4953600;28;20070;-68
2022/09/08 07:48:30;;;;;;;8.18;4.70;;;;;;;;;;4973786;28;20066;-67
2022/09/08 07:51:16;;;;;;;10.02;4.75;;;;;;;;;;4972589;28;20035;-68
2022/09/08 07:54:08;;;;;;;7.88;4.18;;;;;;;;;;4972355;28;20572;-66
2022/09/08 07:56:52;;;;;;;7.90;4.60;;;;;;;;;;4969193;28;20046;-69
2022/09/08 07:59:33;;;;;;;9.50;5.25;;;;;;;;;;4974545;28;20031;-66
2022/09/08 08:02:41;;;;;;;7.53;5.40;;;;;;;;;;4973758;28;20039;-66
2022/09/08 08:05:24;;;;;;;10.27;4.90;;;;;;;;;;4973646;28;20070;-66
2022/09/08 08:08:13;;;;;;;;;;;;;;;;;;4971732;28;20058;-64
2022/09/08 08:11:19;;;;;;;11.25;4.60;;;;;;;;;;4946827;28;20019;-64
2022/09/08 08:14:04;;;;;;;8.52;5.20;;;;;;;;;;4951920;28;20380;-65
2022/09/08 08:17:02;;;;;;;9.02;4.85;;;;;;;;;;4954395;29;20055;-65
2022/09/08 08:19:34;;;;;;;8.48;4.68;;;;;;;;;;4953026;28;20093;-66
2022/09/08 08:22:30;;;;;;;6.63;4.70;;;;;;;;;;4929578;29;20032;-69
2022/09/08 08:25:32;;;;;;;9.57;4.63;;;;;;;;;;4901086;29;20032;-65
2022/09/08 08:28:16;;;;;;;10.10;5.23;;;;;;;;;;4933538;29;20071;-66
2022/09/08 08:31:03;;;;;;;9.65;4.70;;;;;;;;;;4933695;29;20050;-66
2022/09/08 08:33:40;;;;;;;6.75;4.38;;;;;;;;;;4932810;28;20035;-65
2022/09/08 08:36:12;;;;;;;7.40;5.07;;;;;;;;;;4926289;29;20156;-66
2022/09/08 08:38:48;;;;;;;9.77;4.40;;;;;;;;;;4924081;29;20425;-66
2022/09/08 08:41:45;;;;;;;5.63;4.22;;;;;;;;;;4929201;28;20115;-70
2022/09/08 08:44:19;;;;;;;7.78;4.28;;;;;;;;;;4934092;29;20098;-67
2022/09/08 08:47:23;;;;;;;4.88;3.70;;;;;;;;;;4927379;29;20404;-67
2022/09/08 08:50:21;;;;;;;6.22;4.05;;;;;;;;;;4919458;29;20189;-69
2022/09/08 08:52:57;;;;;;;9.73;4.10;;;;;;;;;;4916282;29;20055;-67
2022/09/08 08:55:26;;;;;;;7.10;4.30;;;;;;;;;;4935728;29;20118;-70
2022/09/08 08:58:13;;;;;;;9.57;3.92;;;;;;;;;;4935330;29;20106;-67
2022/09/08 09:01:12;;;;;;;5.07;3.80;;;;;;;;;;4938087;28;20023;-65
2022/09/08 09:03:41;;;;;;;7.22;4.45;;;;;;;;;;4912844;29;20047;-66
2022/09/08 09:06:25;;;;;;;7.15;4.18;;;;;;;;;;4933340;29;20042;-70
2022/09/08 09:09:18;;;;;;;5.68;3.83;;;;;;;;;;4928432;29;20036;-66
2022/09/08 09:11:49;;;;;;;7.00;4.07;;;;;;;;;;4943124;28;20498;-66
2022/09/08 09:14:29;;;;;;;6.00;4.07;;;;;;;;;;4946262;28;20043;-66
2022/09/08 09:17:13;;;;;;;10.15;4.72;;;;;;;;;;4955055;28;20093;-66
2022/09/08 09:20:01;;;;;;;7.90;4.63;;;;;;;;;;4954817;28;20459;-66
2022/09/08 09:22:59;;;;;;;5.43;3.95;;;;;;;;;;4955030;28;20066;-67
2022/09/08 09:25:36;;;;;;;6.57;4.20;;;;;;;;;;4968866;28;20039;-67
2022/09/08 09:28:36;;;;;;;5.10;4.07;;;;;;;;;;4974971;28;20069;-66
2022/09/08 09:31:47;;;;;;;5.50;3.97;;;;;;;;;;4975396;28;20049;-67
2022/09/08 09:34:40;;;;;;;7.30;4.30;;;;;;;;;;4975688;28;20391;-66
2022/09/08 09:37:22;;;;;;;7.50;4.30;;;;;;;;;;4975538;28;20066;-66
2022/09/08 09:40:23;;;;;;;5.60;3.88;;;;;;;;;;4971789;28;20073;-66
2022/09/08 09:42:54;;;;;;;8.82;4.90;;;;;;;;;;4944343;28;20128;-67
2022/09/08 09:46:01;;;;;;;7.40;4.20;;;;;;;;;;4975934;28;20035;-65
2022/09/08 09:49:12;;;;;;;5.35;4.50;;;;;;;;;;4958690;28;20050;-65
2022/09/08 09:51:49;;;;;;;5.07;4.10;;;;;;;;;;4945669;28;20553;-66
2022/09/08 09:54:40;;;;;;;8.48;3.90;;;;;;;;;;4976115;28;20075;-67
2022/09/08 09:57:24;;;;;;;6.82;4.57;;;;;;;;;;4975679;28;20027;-67
2022/09/08 10:00:09;;;;;;;9.48;3.97;;;;;;;;;;4975385;28;20398;-65
2022/09/08 10:03:09;;;;;;;6.35;4.40;;;;;;;;;;4975100;28;20069;-67
2022/09/08 10:06:16;;;;;;;5.88;4.07;;;;;;;;;;4975413;28;20069;-66
2022/09/08 10:09:19;;;;;;;7.18;4.15;;;;;;;;;;4965270;28;20130;-67
2022/09/08 10:12:11;;;;;;;12.18;4.47;;;;;;;;;;4975137;28;20782;-67
2022/09/08 10:14:46;;;;;;;7.72;4.30;;;;;;;;;;4973616;28;20126;-66
2022/09/08 10:17:34;;;;;;;9.00;4.35;;;;;;;;;;4955981;28;20035;-66
2022/09/08 10:20:21;;;;;;;5.40;4.30;;;;;;;;;;4955865;28;20138;-67
2022/09/08 10:23:02;;;;;;;6.20;4.30;;;;;;;;;;4945937;28;20032;-67
2022/09/08 10:25:52;;;;;;;8.02;4.50;;;;;;;;;;4936769;29;20095;-67
2022/09/08 10:28:50;;;;;;;12.25;5.00;;;;;;;;;;4945146;28;20125;-66
2022/09/08 10:31:53;;;;;;;6.35;4.20;;;;;;;;;;4938372;29;20090;-69
2022/09/08 10:34:54;;;;;;;7.13;5.03;;;;;;;;;;4955645;28;20093;-69
2022/09/08 10:38:07;;;;;;;7.63;4.75;;;;;;;;;;4955068;28;20043;-67
2022/09/08 10:41:01;;;;;;;7.82;4.32;;;;;;;;;;4959940;28;20034;-66
2022/09/08 10:43:51;;;;;;;8.55;3.83;;;;;;;;;;4974443;28;20086;-69
2022/09/08 10:46:29;;;;;;;7.55;3.95;;;;;;;;;;4974189;28;20125;-67
2022/09/08 10:49:48;;;;;;;6.50;3.92;;;;;;;;;;4974415;28;20038;-66
2022/09/08 10:52:32;;;;;;;8.15;3.92;;;;;;;;;;4974755;28;20134;-67
2022/09/08 10:55:27;;;;;;;6.85;3.95;;;;;;;;;;4955525;28;20074;-68
2022/09/08 10:58:30;;;;;;;7.07;4.40;;;;;;;;;;4955032;28;20078;-68
2022/09/08 11:01:18;;;;;;;4.72;3.78;;;;;;;;;;4964737;28;20062;-67
2022/09/08 11:04:22;;;;;;;5.20;4.05;;;;;;;;;;4958753;28;20171;-68
2022/09/08 11:07:20;;;;;;;5.45;4.00;;;;;;;;;;4937766;29;20446;-70
2022/09/08 11:10:02;;;;;;;5.55;4.30;;;;;;;;;;4936107;29;20088;-67
2022/09/08 11:12:37;;;;;;;9.82;4.35;;;;;;;;;;4955751;28;20378;-67
2022/09/08 11:15:22;;;;;;;6.78;3.92;;;;;;;;;;4937117;29;20133;-66
2022/09/08 11:17:50;;;;;;;7.00;4.13;;;;;;;;;;4954636;28;20455;-68
2022/09/08 11:20:35;;;;;;;9.30;3.80;;;;;;;;;;4937638;29;20034;-68
2022/09/08 11:23:01;;;;;;;5.63;4.28;;;;;;;;;;4938048;28;20446;-69
2022/09/08 11:25:53;;;;;;;5.28;3.78;;;;;;;;;;4955230;28;20538;-69
2022/09/08 11:28:56;;;;;;;6.33;3.57;;;;;;;;;;4931326;28;20083;-67
2022/09/08 11:31:36;;;;;;;5.90;3.92;;;;;;;;;;4938004;28;20047;-70
2022/09/08 11:34:21;;;;;;;9.05;3.78;;;;;;;;;;4951061;28;20046;-68
2022/09/08 11:37:05;;;;;;;4.53;3.78;;;;;;;;;;4936068;28;20046;-68
2022/09/08 11:39:56;;;;;;;5.45;4.28;;;;;;;;;;4954912;28;20181;-67
2022/09/08 11:42:49;;;;;;;5.75;4.05;;;;;;;;;;4922080;28;20037;-69
2022/09/08 11:45:49;;;;;;;8.80;4.38;;;;;;;;;;4938271;28;20098;-67
2022/09/08 11:48:36;;;;;;;6.07;5.00;;;;;;;;;;4938016;29;20047;-67
2022/09/08 11:51:21;;;;;;;7.32;3.75;;;;;;;;;;4922304;29;20039;-67
2022/09/08 11:54:02;;;;;;;8.40;4.35;;;;;;;;;;4922033;29;20344;-67
2022/09/08 11:57:02;;;;;;;6.43;4.10;;;;;;;;;;4954986;28;20023;-67
2022/09/08 11:59:38;;;;;;;5.10;4.13;;;;;;;;;;4955260;28;20576;-67
2022/09/08 12:02:22;;;;;;;4.82;3.90;;;;;;;;;;4938400;28;20097;-68
2022/09/08 12:05:07;;;;;;;5.70;3.92;;;;;;;;;;4954899;28;20115;-65
2022/09/08 12:07:55;;;;;;;6.80;4.20;;;;;;;;;;4954968;28;20063;-66
2022/09/08 12:10:30;;;;;;;9.48;3.80;;;;;;;;;;4938257;29;20495;-67
2022/09/08 12:13:05;;;;;;;7.47;4.15;;;;;;;;;;4955169;28;20040;-67
2022/09/08 12:16:01;;;;;;;7.65;4.18;;;;;;;;;;4937633;28;20044;-66
2022/09/08 12:18:46;;;;;;;5.15;4.10;;;;;;;;;;4954906;28;20106;-69
2022/09/08 12:21:54;;;;;;;7.35;4.22;;;;;;;;;;4954984;28;20027;-67
2022/09/08 12:24:35;;;;;;;5.60;4.05;;;;;;;;;;4954975;28;20039;-66
2022/09/08 12:27:19;;;;;;;5.53;4.03;;;;;;;;;;4921920;29;20391;-70
2022/09/08 12:30:16;;;;;;;4.57;3.90;;;;;;;;;;4955127;28;20028;-66
2022/09/08 12:32:54;;;;;;;6.25;4.28;;;;;;;;;;4958950;28;20039;-65
2022/09/08 12:35:30;;;;;;;5.97;4.38;;;;;;;;;;4941666;28;20027;-67
2022/09/08 12:38:32;;;;;;;9.52;4.57;;;;;;;;;;4941616;28;20463;-65
2022/09/08 12:41:07;;;;;;;4.70;4.13;;;;;;;;;;4925639;28;20082;-65
2022/09/08 12:43:43;;;;;;;6.45;3.83;;;;;;;;;;4941161;28;20442;-66
2022/09/08 12:46:40;;;;;;;4.80;4.10;;;;;;;;;;4958419;28;20407;-66
2022/09/08 12:49:36;;;;;;;5.75;3.95;;;;;;;;;;4941258;29;20468;-67
2022/09/08 12:52:08;;;;;;;6.00;4.10;;;;;;;;;;4940849;29;20130;-66
2022/09/08 12:54:36;;;;;;;5.80;4.22;;;;;;;;;;4958264;28;20036;-67
2022/09/08 12:57:27;;;;;;;4.55;3.90;;;;;;;;;;4959100;28;20109;-69
2022/09/08 13:00:14;;;;;;;6.88;3.83;;;;;;;;;;4956744;28;20057;-66
2022/09/08 13:03:02;;;;;;;6.82;4.40;;;;;;;;;;4953102;28;20074;-68
2022/09/08 13:05:50;;;;;;;6.72;4.18;;;;;;;;;;4956815;29;20145;-68
2022/09/08 13:08:53;;;;;;;4.20;3.80;;;;;;;;;;4956883;29;20039;-69
2022/09/08 13:11:37;;;;;;;10.65;3.97;;;;;;;;;;4958804;28;20381;-69
2022/09/08 13:14:07;;;;;;;4.32;3.75;;;;;;;;;;4975928;28;20497;-67
2022/09/08 13:17:02;;;;;;;5.63;3.90;;;;;;;;;;4958541;28;20470;-68
2022/09/08 13:19:38;;;;;;;6.53;3.88;;;;;;;;;;4957989;28;20038;-70
2022/09/08 13:22:27;;;;;;;6.47;4.10;;;;;;;;;;4974832;28;20062;-68
2022/09/08 13:25:17;;;;;;;5.03;3.80;;;;;;;;;;4932784;29;20507;-69
2022/09/08 13:27:57;;;;;;;6.00;3.75;;;;;;;;;;4955390;28;20126;-70
2022/09/08 13:30:38;;;;;;;6.63;3.88;;;;;;;;;;4938933;29;20043;-67
2022/09/08 13:33:25;;;;;;;4.43;3.80;;;;;;;;;;4953995;28;20027;-68
2022/09/08 13:36:10;;;;;;;8.10;3.92;;;;;;;;;;4954883;28;20482;-67
2022/09/08 13:38:44;;;;;;;4.80;3.60;;;;;;;;;;4956126;28;20031;-67
2022/09/08 13:41:55;;;;;;;7.75;3.63;;;;;;;;;;4938730;28;20537;-67
2022/09/08 13:44:51;;;;;;;5.18;3.92;;;;;;;;;;4952894;28;20043;-68
2022/09/08 13:47:41;;;;;;;5.32;3.67;;;;;;;;;;4925377;28;20117;-68
2022/09/08 13:50:35;;;;;;;4.45;3.45;;;;;;;;;;4939313;29;20043;-68
2022/09/08 13:53:21;;;;;;;4.28;3.47;;;;;;;;;;4935504;29;20035;-66
2022/09/08 13:55:57;;;;;;;6.70;4.03;;;;;;;;;;4938605;29;20046;-67
2022/09/08 13:58:37;;;;;;;4.75;3.85;;;;;;;;;;4955160;28;20106;-66
2022/09/08 14:01:20;;;;;;;4.38;3.88;;;;;;;;;;4954512;28;20042;-65
2022/09/08 14:03:58;;;;;;;5.22;3.90;;;;;;;;;;4939040;28;20475;-65
2022/09/08 14:06:48;;;;;;;6.50;3.75;;;;;;;;;;4955760;28;20093;-65
2022/09/08 14:09:28;;;;;;;5.80;4.15;;;;;;;;;;4974567;28;20486;-66
2022/09/08 14:12:09;;;;;;;5.50;3.75;;;;;;;;;;4956938;28;20144;-65
2022/09/08 14:14:35;;;;;;;7.20;3.85;;;;;;;;;;4927577;28;20403;-67
2022/09/08 14:17:39;;;;;;;3.92;3.30;;;;;;;;;;4969494;28;20117;-66
2022/09/08 14:20:36;;;;;;;6.30;3.65;;;;;;;;;;4915572;29;20142;-66
2022/09/08 14:23:32;;;;;;;4.70;3.65;;;;;;;;;;4960162;28;20027;-68
2022/09/08 14:26:32;;;;;;;7.63;4.00;;;;;;;;;;4957431;28;20041;-70
2022/09/08 14:29:33;;;;;;;6.32;3.85;;;;;;;;;;4957022;28;20042;-70
2022/09/08 14:32:18;;;;;;;6.28;3.60;;;;;;;;;;4957123;28;20053;-67
2022/09/08 14:35:21;;;;;;;7.10;4.22;;;;;;;;;;4957368;28;20629;-67
2022/09/08 14:38:02;;;;;;;6.47;3.63;;;;;;;;;;4936059;29;20031;-67
2022/09/08 14:40:55;;;;;;;6.75;3.50;;;;;;;;;;4918471;29;20095;-68
2022/09/08 14:43:50;;;;;;;5.00;3.85;;;;;;;;;;4919082;29;20040;-66
2022/09/08 14:46:16;;;;;;;5.93;3.40;;;;;;;;;;4914562;29;20048;-66
2022/09/08 14:49:03;;;;;;;6.72;3.95;;;;;;;;;;4930936;28;20047;-69
2022/09/08 14:51:53;;;;;;;6.03;3.75;;;;;;;;;;4952650;28;20413;-69
2022/09/08 14:54:52;;;;;;;4.35;3.45;;;;;;;;;;4953944;28;20043;-68
2022/09/08 14:57:28;;;;;;;6.55;3.75;;;;;;;;;;4924895;28;20051;-69
2022/09/08 15:00:14;;;;;;;6.60;3.42;;;;;;;;;;4956372;28;20043;-67
2022/09/08 15:03:03;;;;;;;8.07;3.25;;;;;;;;;;4940447;28;20039;-69
2022/09/08 15:05:33;;;;;;;6.82;3.72;;;;;;;;;;4957793;28;20043;-69
2022/09/08 15:08:04;;;;;;;5.40;3.35;;;;;;;;;;4974563;28;20507;-69
2022/09/08 15:11:11;;;;;;;15.40;6.07;;;;;;;;;;4975078;28;20034;-69
2022/09/08 15:13:56;;;;;;;7.25;3.60;;;;;;;;;;4953371;28;20359;-69
2022/09/08 15:16:26;;;;;;;7.65;3.88;;;;;;;;;;4941996;28;20397;-68
2022/09/08 15:19:05;;;;;;;5.93;3.50;;;;;;;;;;4942105;28;20053;-70
2022/09/08 15:21:54;;;;;;;7.63;3.53;;;;;;;;;;4957678;28;20125;-68
2022/09/08 15:24:48;;;;;;;5.32;3.30;;;;;;;;;;4957690;28;20113;-67
2022/09/08 15:27:19;;;;;;;5.20;3.10;;;;;;;;;;4975002;28;20097;-68
2022/09/08 15:30:22;;;;;;;5.55;3.10;;;;;;;;;;4974858;28;20086;-67
2022/09/08 15:32:58;;;;;;;6.35;3.05;;;;;;;;;;4865064;29;20435;-67
2022/09/08 15:35:55;;;;;;;6.35;3.45;;;;;;;;;;4931841;28;20039;-67
2022/09/08 15:39:03;;;;;;;4.72;3.13;;;;;;;;;;4974631;28;20478;-67
2022/09/08 15:41:39;;;;;;;6.03;3.20;;;;;;;;;;4949261;28;20058;-66
2022/09/08 15:44:11;;;;;;;7.35;3.08;;;;;;;;;;4957208;28;20478;-69
2022/09/08 15:46:54;;;;;;;3.45;2.63;;;;;;;;;;4957370;28;20081;-68
2022/09/08 15:49:48;;;;;;;8.57;3.38;;;;;;;;;;4957484;28;20116;-67